Time;durP1;ratioP1;P1;durP2;ratioP2;P2;SDS_P1;SDS_P2;PMS_P1;PMS_P2;Temp;Humidity;BMP_temperature;BMP_pressure;BME280_temperature;BME280_humidity;BME280_pressure;Samples;Min_cycle;Max_cycle;Signal;HPM_P1;HPM_P2
2022/01/19 00:00:08;;;;;;;32.73;11.80;;;;;;;;;;5083199;28;20052;-57
2022/01/19 00:02:35;;;;;;;30.42;10.48;;;;;;;;;;5067156;28;20286;-55
2022/01/19 00:05:01;;;;;;;24.65;8.98;;;;;;;;;;5061918;28;20117;-55
2022/01/19 00:07:28;;;;;;;33.80;9.82;;;;;;;;;;5068092;28;20053;-56
2022/01/19 00:09:54;;;;;;;23.35;9.02;;;;;;;;;;5061046;28;20048;-51
2022/01/19 00:12:21;;;;;;;30.95;10.43;;;;;;;;;;5068061;28;20076;-53
2022/01/19 00:14:49;;;;;;;33.00;10.77;;;;;;;;;;5042794;28;20056;-54
2022/01/19 00:17:16;;;;;;;34.80;10.25;;;;;;;;;;5047953;28;20049;-56
2022/01/19 00:19:42;;;;;;;36.67;11.70;;;;;;;;;;5051891;28;20048;-57
2022/01/19 00:22:09;;;;;;;35.00;12.05;;;;;;;;;;5067167;28;20074;-58
2022/01/19 00:24:36;;;;;;;41.92;13.40;;;;;;;;;;5062356;28;20056;-57
2022/01/19 00:27:02;;;;;;;32.13;9.35;;;;;;;;;;5080117;28;20052;-58
2022/01/19 00:29:29;;;;;;;37.83;11.68;;;;;;;;;;5063769;28;20041;-58
2022/01/19 00:31:57;;;;;;;36.30;10.65;;;;;;;;;;5067351;28;20127;-58
2022/01/19 00:34:23;;;;;;;34.08;10.77;;;;;;;;;;5060857;28;20099;-56
2022/01/19 00:36:50;;;;;;;40.58;11.40;;;;;;;;;;5067360;28;20044;-59
2022/01/19 00:39:18;;;;;;;37.90;11.00;;;;;;;;;;5063473;28;20050;-58
2022/01/19 00:41:44;;;;;;;43.47;12.52;;;;;;;;;;5065044;28;20044;-55
2022/01/19 00:44:11;;;;;;;39.20;11.82;;;;;;;;;;5067753;28;20064;-53
2022/01/19 00:46:38;;;;;;;35.50;11.00;;;;;;;;;;5061330;28;20071;-56
2022/01/19 00:49:06;;;;;;;28.20;10.05;;;;;;;;;;5067879;28;20140;-57
2022/01/19 00:51:32;;;;;;;30.93;10.17;;;;;;;;;;5047100;28;20133;-54
2022/01/19 00:53:59;;;;;;;37.28;13.13;;;;;;;;;;5046572;28;20357;-56
2022/01/19 00:56:27;;;;;;;35.03;10.82;;;;;;;;;;5063676;28;20055;-54
2022/01/19 00:58:53;;;;;;;39.90;11.95;;;;;;;;;;5067089;28;20075;-52
2022/01/19 01:01:20;;;;;;;18.45;7.28;;;;;;;;;;5061324;28;20049;-58
2022/01/19 01:03:46;;;;;;;18.92;8.13;;;;;;;;;;5066746;28;20048;-52
2022/01/19 01:06:15;;;;;;;33.80;10.25;;;;;;;;;;5060565;28;20086;-55
2022/01/19 01:08:43;;;;;;;29.60;10.77;;;;;;;;;;5067078;28;20142;-54
2022/01/19 01:11:09;;;;;;;31.70;10.57;;;;;;;;;;5061155;28;20117;-56
2022/01/19 01:16:31;;;;;;;29.20;10.63;;;;;;;;;;5060255;28;20051;-52
2022/01/19 01:18:59;;;;;;;29.60;10.60;;;;;;;;;;5067407;28;20136;-54
2022/01/19 01:21:27;;;;;;;31.95;10.93;;;;;;;;;;5062129;28;20076;-51
2022/01/19 01:23:54;;;;;;;43.27;13.90;;;;;;;;;;5068745;28;20048;-60
2022/01/19 01:26:21;;;;;;;42.53;13.15;;;;;;;;;;5061551;28;20044;-55
2022/01/19 01:28:48;;;;;;;29.88;10.88;;;;;;;;;;5083523;28;20056;-56
2022/01/19 01:31:15;;;;;;;34.90;12.43;;;;;;;;;;5082714;28;20048;-56
2022/01/19 01:33:42;;;;;;;33.35;12.38;;;;;;;;;;5080178;28;20052;-58
2022/01/19 01:36:10;;;;;;;31.50;10.82;;;;;;;;;;5065898;28;20048;-59
2022/01/19 01:38:38;;;;;;;29.48;10.80;;;;;;;;;;5043454;28;20060;-58
2022/01/19 01:41:08;;;;;;;38.10;11.07;;;;;;;;;;5046329;28;20098;-55
2022/01/19 01:43:35;;;;;;;35.85;12.05;;;;;;;;;;5040776;28;20072;-55
2022/01/19 01:46:05;;;;;;;31.00;11.70;;;;;;;;;;5045485;28;20061;-57
2022/01/19 01:48:35;;;;;;;27.20;10.25;;;;;;;;;;5063661;28;20066;-59
2022/01/19 01:53:47;;;;;;;35.22;11.25;;;;;;;;;;5075853;28;20125;-55
2022/01/19 01:56:16;;;;;;;36.85;10.95;;;;;;;;;;5066164;28;20417;-57
2022/01/19 01:58:43;;;;;;;29.20;11.52;;;;;;;;;;5059987;28;20055;-58
2022/01/19 02:01:10;;;;;;;28.70;10.32;;;;;;;;;;5065541;28;20059;-57
2022/01/19 02:03:38;;;;;;;25.00;10.25;;;;;;;;;;5072973;28;20063;-56
2022/01/19 02:06:32;;;;;;;29.23;9.95;;;;;;;;;;5065904;28;20052;-56
2022/01/19 02:09:07;;;;;;;31.70;11.02;;;;;;;;;;5073194;28;20150;-55
2022/01/19 02:22:49;;;;;;;25.80;9.50;;;;;;;;;;5047735;28;20052;-57
2022/01/19 02:25:16;;;;;;;33.80;9.82;;;;;;;;;;5076612;28;20056;-56
2022/01/19 02:41:26;;;;;;;24.08;6.47;;;;;;;;;;5062651;28;20187;-56
2022/01/19 02:43:52;;;;;;;25.60;8.88;;;;;;;;;;5045674;28;20159;-57
2022/01/19 02:46:53;;;;;;;24.52;7.45;;;;;;;;;;5040969;28;20053;-57
2022/01/19 02:49:22;;;;;;;19.52;6.93;;;;;;;;;;5059839;28;20053;-56
2022/01/19 02:51:52;;;;;;;19.42;7.18;;;;;;;;;;5066098;28;20152;-56
2022/01/19 02:54:20;;;;;;;20.65;6.82;;;;;;;;;;5067643;28;20083;-54
2022/01/19 02:56:51;;;;;;;19.15;6.63;;;;;;;;;;5042142;28;20126;-53
2022/01/19 02:59:22;;;;;;;21.23;6.88;;;;;;;;;;5043721;28;20049;-56
2022/01/19 03:10:03;;;;;;;17.10;6.80;;;;;;;;;;5087994;28;20191;-56
2022/01/19 03:12:30;;;;;;;20.80;7.50;;;;;;;;;;5064667;28;20059;-54
2022/01/19 03:14:57;;;;;;;20.02;7.22;;;;;;;;;;5070012;28;20056;-53
2022/01/19 03:17:24;;;;;;;15.10;6.57;;;;;;;;;;5064875;28;20048;-54
2022/01/19 03:19:51;;;;;;;17.65;7.22;;;;;;;;;;5086554;28;20072;-54
2022/01/19 03:22:25;;;;;;;19.60;7.30;;;;;;;;;;5064454;28;20052;-52
2022/01/19 03:24:52;;;;;;;20.55;7.32;;;;;;;;;;5070181;28;20056;-49
2022/01/19 03:27:19;;;;;;;22.80;7.40;;;;;;;;;;5081026;28;20060;-54
2022/01/19 03:29:45;;;;;;;20.77;7.40;;;;;;;;;;5070053;28;20156;-49
2022/01/19 03:32:12;;;;;;;19.38;6.95;;;;;;;;;;5063808;28;20064;-52
2022/01/19 03:34:40;;;;;;;20.98;7.47;;;;;;;;;;5068013;28;20048;-56
2022/01/19 03:37:06;;;;;;;21.50;6.67;;;;;;;;;;5063781;28;20048;-51
2022/01/19 03:39:35;;;;;;;18.40;7.13;;;;;;;;;;5070886;28;20131;-55
2022/01/19 03:42:01;;;;;;;19.50;7.43;;;;;;;;;;5072020;28;20047;-55
2022/01/19 03:44:28;;;;;;;20.23;7.18;;;;;;;;;;5093002;28;20163;-51
2022/01/19 03:46:57;;;;;;;20.50;7.68;;;;;;;;;;5055724;28;20049;-55
2022/01/19 03:49:25;;;;;;;20.17;7.15;;;;;;;;;;5049237;28;20049;-55
2022/01/19 03:51:52;;;;;;;20.20;7.30;;;;;;;;;;5044663;28;20051;-54
2022/01/19 03:54:20;;;;;;;18.80;6.78;;;;;;;;;;5063694;28;20056;-51
2022/01/19 03:56:48;;;;;;;19.15;6.93;;;;;;;;;;5083270;28;20478;-55
2022/01/19 03:59:15;;;;;;;17.50;7.10;;;;;;;;;;5064135;28;20045;-52
2022/01/19 04:01:42;;;;;;;19.65;7.25;;;;;;;;;;5070337;28;20083;-57
2022/01/19 04:07:01;;;;;;;14.80;5.97;;;;;;;;;;5056897;28;20114;-57
2022/01/19 04:09:28;;;;;;;18.67;6.68;;;;;;;;;;5069615;28;20120;-59
2022/01/19 04:11:56;;;;;;;20.00;7.07;;;;;;;;;;5077779;28;20051;-55
2022/01/19 04:14:23;;;;;;;21.25;7.25;;;;;;;;;;5047229;28;20056;-57
2022/01/19 04:16:49;;;;;;;17.70;6.63;;;;;;;;;;5097013;28;20089;-58
2022/01/19 04:19:26;;;;;;;19.92;7.00;;;;;;;;;;5070605;28;20075;-56
2022/01/19 04:21:53;;;;;;;18.33;6.72;;;;;;;;;;5050600;28;20060;-55
2022/01/19 04:24:20;;;;;;;14.48;6.43;;;;;;;;;;5059447;28;20064;-55
2022/01/19 04:26:56;;;;;;;20.67;6.32;;;;;;;;;;5082878;28;20057;-58
2022/01/19 04:29:25;;;;;;;18.42;6.50;;;;;;;;;;5043558;28;20072;-58
2022/01/19 04:31:52;;;;;;;15.70;5.93;;;;;;;;;;5055634;28;20052;-53
2022/01/19 04:34:19;;;;;;;19.17;7.18;;;;;;;;;;5059284;28;20151;-58
2022/01/19 04:37:22;;;;;;;20.17;7.13;;;;;;;;;;5047655;28;20111;-52
2022/01/19 04:45:49;;;;;;;21.00;6.90;;;;;;;;;;5079262;28;20066;-54
2022/01/19 04:48:22;;;;;;;19.08;6.82;;;;;;;;;;5081796;28;20056;-58
2022/01/19 05:02:19;;;;;;;15.63;5.43;;;;;;;;;;5008140;28;19931;-58
2022/01/19 05:04:53;;;;;;;20.85;6.70;;;;;;;;;;5058535;28;20083;-59
2022/01/19 05:07:24;;;;;;;18.58;6.82;;;;;;;;;;5066485;28;20068;-59
2022/01/19 05:10:00;;;;;;;14.27;6.10;;;;;;;;;;5060839;28;20075;-56
2022/01/19 05:15:10;;;;;;;20.17;6.35;;;;;;;;;;5059162;28;20053;-56
2022/01/19 05:17:39;;;;;;;29.40;7.05;;;;;;;;;;5066993;28;20080;-53
2022/01/19 05:20:06;;;;;;;22.02;6.68;;;;;;;;;;5067509;28;20052;-56
2022/01/19 05:22:32;;;;;;;17.55;6.22;;;;;;;;;;5060250;28;20059;-56
2022/01/19 05:24:59;;;;;;;18.88;6.60;;;;;;;;;;5066112;28;20068;-57
2022/01/19 05:27:27;;;;;;;16.90;6.20;;;;;;;;;;5059739;28;20110;-55
2022/01/19 05:29:53;;;;;;;16.15;6.25;;;;;;;;;;5066368;28;20052;-54
2022/01/19 05:32:20;;;;;;;16.10;6.43;;;;;;;;;;5060749;28;20076;-51
2022/01/19 05:34:48;;;;;;;16.27;5.88;;;;;;;;;;5066633;28;20139;-52
2022/01/19 05:37:14;;;;;;;21.15;7.35;;;;;;;;;;5061779;28;20044;-56
2022/01/19 05:39:41;;;;;;;24.27;7.22;;;;;;;;;;5069404;28;20048;-54
2022/01/19 05:42:14;;;;;;;22.95;6.57;;;;;;;;;;5061114;28;20056;-57
2022/01/19 05:44:43;;;;;;;22.35;7.05;;;;;;;;;;5067106;28;20139;-57
2022/01/19 05:47:10;;;;;;;23.20;5.97;;;;;;;;;;5053589;28;20052;-59
2022/01/19 05:49:36;;;;;;;19.77;7.03;;;;;;;;;;5047348;28;20088;-57
2022/01/19 05:52:05;;;;;;;19.70;7.47;;;;;;;;;;5048883;28;20125;-59
2022/01/19 05:54:33;;;;;;;21.35;7.82;;;;;;;;;;5068536;28;20131;-54
2022/01/19 05:56:59;;;;;;;16.88;7.05;;;;;;;;;;5078776;28;20044;-58
2022/01/19 05:59:26;;;;;;;16.75;7.47;;;;;;;;;;5067780;28;20052;-54
2022/01/19 06:01:53;;;;;;;17.90;6.78;;;;;;;;;;5062156;28;20056;-54
2022/01/19 06:04:19;;;;;;;17.30;7.30;;;;;;;;;;5066942;28;20079;-57
2022/01/19 06:06:46;;;;;;;19.27;7.60;;;;;;;;;;5067812;28;20060;-56
2022/01/19 06:09:32;;;;;;;19.30;6.82;;;;;;;;;;5060550;28;20048;-56
2022/01/19 06:11:59;;;;;;;18.38;6.60;;;;;;;;;;5085093;28;20133;-55
2022/01/19 06:14:25;;;;;;;18.95;7.55;;;;;;;;;;5060960;28;20057;-54
2022/01/19 06:16:52;;;;;;;19.63;6.97;;;;;;;;;;5066907;28;20080;-55
2022/01/19 06:19:19;;;;;;;21.05;7.63;;;;;;;;;;5075900;28;20053;-56
2022/01/19 06:21:46;;;;;;;24.23;8.23;;;;;;;;;;5084388;28;20106;-56
2022/01/19 06:24:14;;;;;;;19.73;7.90;;;;;;;;;;5077874;28;20044;-59
2022/01/19 06:26:42;;;;;;;24.42;7.63;;;;;;;;;;5067385;28;20082;-57
2022/01/19 06:29:09;;;;;;;21.33;7.43;;;;;;;;;;5061099;28;20079;-58
2022/01/19 06:31:35;;;;;;;22.08;8.07;;;;;;;;;;5066635;28;20045;-52
2022/01/19 06:34:02;;;;;;;20.85;8.05;;;;;;;;;;5062418;28;20082;-55
2022/01/19 06:36:29;;;;;;;24.42;7.32;;;;;;;;;;5085336;28;20048;-58
2022/01/19 06:38:55;;;;;;;23.55;8.50;;;;;;;;;;5061617;28;20045;-57
2022/01/19 06:41:23;;;;;;;23.25;7.00;;;;;;;;;;5059975;28;20114;-55
2022/01/19 06:43:50;;;;;;;26.02;8.10;;;;;;;;;;5050973;28;20044;-58
2022/01/19 06:46:17;;;;;;;21.40;8.50;;;;;;;;;;5049553;28;20053;-58
2022/01/19 06:48:44;;;;;;;28.27;8.38;;;;;;;;;;5045241;28;20056;-56
2022/01/19 06:51:11;;;;;;;23.10;9.07;;;;;;;;;;5069278;28;20147;-57
2022/01/19 06:53:37;;;;;;;26.05;9.10;;;;;;;;;;5068868;28;20061;-53
2022/01/19 06:56:04;;;;;;;27.42;8.18;;;;;;;;;;5063813;28;20048;-52
2022/01/19 06:58:32;;;;;;;28.70;10.07;;;;;;;;;;5069144;28;20052;-55
2022/01/19 07:00:59;;;;;;;28.83;9.77;;;;;;;;;;5060805;28;20044;-56
2022/01/19 07:03:26;;;;;;;27.65;9.23;;;;;;;;;;5068629;28;20075;-54
2022/01/19 07:05:53;;;;;;;36.83;10.00;;;;;;;;;;5049675;28;20079;-52
2022/01/19 07:08:20;;;;;;;30.27;10.70;;;;;;;;;;5049061;28;20056;-56
2022/01/19 07:10:46;;;;;;;35.65;11.30;;;;;;;;;;5044056;28;20138;-54
2022/01/19 07:13:13;;;;;;;34.30;11.00;;;;;;;;;;5049006;28;20169;-58
2022/01/19 07:15:42;;;;;;;66.07;12.80;;;;;;;;;;5069060;28;20135;-57
2022/01/19 07:18:09;;;;;;;32.40;10.68;;;;;;;;;;5070413;28;20056;-51
2022/01/19 07:20:36;;;;;;;34.00;10.30;;;;;;;;;;5063511;28;20603;-58
2022/01/19 07:23:02;;;;;;;34.63;11.13;;;;;;;;;;5070335;28;20049;-56
2022/01/19 07:25:31;;;;;;;36.17;11.13;;;;;;;;;;5063159;28;20064;-55
2022/01/19 07:27:57;;;;;;;35.72;10.57;;;;;;;;;;5048826;28;20139;-58
2022/01/19 07:30:25;;;;;;;35.45;11.32;;;;;;;;;;5044189;28;20136;-58
2022/01/19 07:32:53;;;;;;;35.83;12.30;;;;;;;;;;5067968;28;20063;-56
2022/01/19 07:35:19;;;;;;;32.70;11.13;;;;;;;;;;5068784;28;20416;-56
2022/01/19 07:37:48;;;;;;;32.88;11.00;;;;;;;;;;5079016;28;20308;-59
2022/01/19 07:40:15;;;;;;;34.35;10.75;;;;;;;;;;5068697;28;20053;-53
2022/01/19 07:42:42;;;;;;;33.08;10.23;;;;;;;;;;5061436;28;20064;-57
2022/01/19 07:45:15;;;;;;;35.55;11.35;;;;;;;;;;5067850;28;20090;-58
2022/01/19 07:47:42;;;;;;;34.60;11.00;;;;;;;;;;5047080;28;20091;-55
2022/01/19 07:50:11;;;;;;;27.42;9.00;;;;;;;;;;5046918;28;20061;-59
2022/01/19 07:52:38;;;;;;;34.55;11.00;;;;;;;;;;5068667;28;20049;-55
2022/01/19 07:55:05;;;;;;;37.72;11.35;;;;;;;;;;5064469;27;20057;-58
2022/01/19 07:57:32;;;;;;;40.35;12.05;;;;;;;;;;5066102;28;20369;-59
2022/01/19 07:59:58;;;;;;;34.38;12.00;;;;;;;;;;5047578;28;20112;-60
2022/01/19 08:02:30;;;;;;;32.15;10.95;;;;;;;;;;5065737;28;20088;-58
2022/01/19 08:04:57;;;;;;;27.38;9.77;;;;;;;;;;5067326;28;20053;-57
2022/01/19 08:07:25;;;;;;;32.47;10.85;;;;;;;;;;5061620;28;20093;-55
2022/01/19 08:09:51;;;;;;;28.37;9.97;;;;;;;;;;5084481;28;20052;-58
2022/01/19 08:12:19;;;;;;;30.33;10.82;;;;;;;;;;5060001;28;20048;-58
2022/01/19 08:14:45;;;;;;;36.97;10.63;;;;;;;;;;5064112;28;20056;-56
2022/01/19 08:17:14;;;;;;;31.58;10.05;;;;;;;;;;5032559;28;20084;-59
2022/01/19 08:19:41;;;;;;;32.42;10.25;;;;;;;;;;5027184;28;20053;-56
2022/01/19 08:22:07;;;;;;;27.70;9.98;;;;;;;;;;5028028;28;20069;-52
2022/01/19 08:24:38;;;;;;;37.63;11.80;;;;;;;;;;5041755;28;20053;-59
2022/01/19 08:27:05;;;;;;;34.88;10.43;;;;;;;;;;5046627;28;20057;-56
2022/01/19 08:29:32;;;;;;;34.55;11.05;;;;;;;;;;5071087;28;20082;-53
2022/01/19 08:31:58;;;;;;;25.85;9.95;;;;;;;;;;5053949;28;20114;-54
2022/01/19 08:34:24;;;;;;;30.90;10.10;;;;;;;;;;5041061;28;20068;-58
2022/01/19 08:36:51;;;;;;;34.22;11.77;;;;;;;;;;5047962;28;20404;-58
2022/01/19 08:39:18;;;;;;;32.90;11.60;;;;;;;;;;5042301;28;20147;-58
2022/01/19 08:41:46;;;;;;;29.48;10.35;;;;;;;;;;5049172;28;20130;-58
2022/01/19 08:44:13;;;;;;;34.78;11.95;;;;;;;;;;5042218;28;20057;-61
2022/01/19 08:46:40;;;;;;;30.15;10.90;;;;;;;;;;5046882;28;20065;-59
2022/01/19 08:49:07;;;;;;;22.88;9.55;;;;;;;;;;5056468;28;20102;-56
2022/01/19 08:51:33;;;;;;;30.52;9.85;;;;;;;;;;5066816;28;20135;-55
2022/01/19 08:54:00;;;;;;;30.60;10.93;;;;;;;;;;5060895;28;20419;-56
2022/01/19 08:56:27;;;;;;;31.13;11.05;;;;;;;;;;5066297;28;20045;-57
2022/01/19 08:58:55;;;;;;;33.78;9.70;;;;;;;;;;5060683;28;20052;-57
2022/01/19 09:01:22;;;;;;;30.63;11.00;;;;;;;;;;5066443;28;20049;-56
2022/01/19 09:03:49;;;;;;;26.98;9.63;;;;;;;;;;5065993;28;20064;-57
2022/01/19 09:06:16;;;;;;;26.25;9.48;;;;;;;;;;5041573;28;20064;-56
2022/01/19 09:08:42;;;;;;;29.23;8.98;;;;;;;;;;5046276;28;20132;-56
2022/01/19 09:11:10;;;;;;;27.48;9.88;;;;;;;;;;5041614;28;20055;-55
2022/01/19 09:13:36;;;;;;;27.90;9.77;;;;;;;;;;5045687;28;20055;-51
2022/01/19 09:16:05;;;;;;;30.33;8.38;;;;;;;;;;5041195;28;20053;-54
2022/01/19 09:18:32;;;;;;;26.27;9.10;;;;;;;;;;5046325;28;20080;-53
2022/01/19 09:20:59;;;;;;;28.02;8.85;;;;;;;;;;5052784;28;20084;-53
2022/01/19 09:23:25;;;;;;;26.60;8.60;;;;;;;;;;5083132;28;20075;-54
2022/01/19 09:25:52;;;;;;;22.00;9.27;;;;;;;;;;5052137;28;20125;-55
2022/01/19 09:28:19;;;;;;;23.45;9.18;;;;;;;;;;5082215;28;20394;-54
2022/01/19 09:30:45;;;;;;;27.42;10.13;;;;;;;;;;5059380;28;20052;-55
2022/01/19 09:33:20;;;;;;;23.80;8.63;;;;;;;;;;5065800;28;20076;-54
2022/01/19 09:36:04;;;;;;;23.67;8.55;;;;;;;;;;5073077;28;20144;-55
2022/01/19 09:38:32;;;;;;;23.88;8.73;;;;;;;;;;5063653;28;20053;-56
2022/01/19 09:40:59;;;;;;;24.80;9.10;;;;;;;;;;5057422;28;20060;-53
2022/01/19 09:43:26;;;;;;;29.35;9.55;;;;;;;;;;5062986;28;20060;-51
2022/01/19 09:45:53;;;;;;;24.73;9.98;;;;;;;;;;5060725;28;20079;-56
2022/01/19 09:48:21;;;;;;;26.15;9.30;;;;;;;;;;5082792;28;20044;-53
2022/01/19 09:50:48;;;;;;;23.30;9.85;;;;;;;;;;5077619;28;20079;-52
2022/01/19 09:53:14;;;;;;;24.30;10.00;;;;;;;;;;5046088;28;20073;-52
2022/01/19 09:55:42;;;;;;;24.08;9.23;;;;;;;;;;5071449;28;20103;-56
2022/01/19 09:58:09;;;;;;;30.33;9.25;;;;;;;;;;5080317;28;20056;-56
2022/01/19 10:00:36;;;;;;;23.08;9.13;;;;;;;;;;5066122;28;20144;-56
2022/01/19 10:03:13;;;;;;;23.77;9.27;;;;;;;;;;5056984;28;20175;-52
2022/01/19 10:05:53;;;;;;;22.52;9.02;;;;;;;;;;5083603;28;20051;-56
2022/01/19 10:08:26;;;;;;;24.50;9.52;;;;;;;;;;5079692;28;20053;-56
2022/01/19 10:11:04;;;;;;;24.58;9.75;;;;;;;;;;5070356;28;20052;-55
2022/01/19 10:19:15;;;;;;;23.15;9.10;;;;;;;;;;5082414;28;20113;-55
2022/01/19 10:21:57;;;;;;;26.15;9.15;;;;;;;;;;5085045;28;20053;-56
2022/01/19 10:24:34;;;;;;;20.27;7.97;;;;;;;;;;5079685;28;20105;-58
2022/01/19 10:27:20;;;;;;;24.35;8.80;;;;;;;;;;5082348;28;20052;-55
2022/01/19 10:29:47;;;;;;;23.83;8.73;;;;;;;;;;5100751;28;20055;-58
2022/01/19 10:32:14;;;;;;;24.08;8.52;;;;;;;;;;5082367;28;20052;-55
2022/01/19 10:34:41;;;;;;;19.20;7.78;;;;;;;;;;5075107;28;20052;-60
2022/01/19 10:37:09;;;;;;;23.00;8.77;;;;;;;;;;5082558;28;20166;-56
2022/01/19 10:39:40;;;;;;;21.00;7.90;;;;;;;;;;5073427;28;20052;-56
2022/01/19 10:42:07;;;;;;;21.30;7.75;;;;;;;;;;5084710;28;20306;-58
2022/01/19 10:44:36;;;;;;;18.55;7.75;;;;;;;;;;5060004;28;20048;-56
2022/01/19 10:47:02;;;;;;;;;;;;;;;;;;5057780;28;20045;-55
2022/01/19 10:49:29;;;;;;;17.83;7.35;;;;;;;;;;5049399;28;19924;-56
2022/01/19 10:51:58;;;;;;;19.10;7.20;;;;;;;;;;5077054;28;20064;-53
2022/01/19 10:54:30;;;;;;;22.88;8.23;;;;;;;;;;5073150;28;20052;-53
2022/01/19 10:56:58;;;;;;;20.42;7.80;;;;;;;;;;5075035;28;20122;-57
2022/01/19 10:59:32;;;;;;;27.58;8.93;;;;;;;;;;5049277;28;20053;-58
2022/01/19 11:01:59;;;;;;;19.00;6.95;;;;;;;;;;5071746;28;20048;-57
2022/01/19 11:04:28;;;;;;;19.85;8.48;;;;;;;;;;5071108;28;20074;-53
2022/01/19 11:06:56;;;;;;;23.73;9.30;;;;;;;;;;5098181;28;20059;-55
2022/01/19 11:09:25;;;;;;;22.13;9.43;;;;;;;;;;5048557;28;20049;-57
2022/01/19 11:11:54;;;;;;;24.98;8.32;;;;;;;;;;5050581;28;20067;-52
2022/01/19 11:14:23;;;;;;;24.75;8.90;;;;;;;;;;5052189;28;20056;-56
2022/01/19 11:16:51;;;;;;;22.75;8.40;;;;;;;;;;5065441;28;20049;-55
2022/01/19 11:19:18;;;;;;;24.85;8.93;;;;;;;;;;5045576;28;20057;-58
2022/01/19 11:21:52;;;;;;;27.73;8.77;;;;;;;;;;5065793;28;20057;-53
2022/01/19 11:24:25;;;;;;;18.92;6.85;;;;;;;;;;5067866;28;20072;-57
2022/01/19 11:26:54;;;;;;;20.90;8.77;;;;;;;;;;5069800;28;20138;-55
2022/01/19 11:29:23;;;;;;;22.42;8.18;;;;;;;;;;5070846;28;20048;-55
2022/01/19 11:31:50;;;;;;;22.27;8.30;;;;;;;;;;5081857;28;20080;-56
2022/01/19 11:34:37;;;;;;;26.75;9.27;;;;;;;;;;5069699;28;20060;-55
2022/01/19 11:37:03;;;;;;;26.58;8.63;;;;;;;;;;5080206;28;20080;-58
2022/01/19 11:39:31;;;;;;;21.33;8.13;;;;;;;;;;5072554;28;20114;-54
2022/01/19 11:41:59;;;;;;;23.80;9.07;;;;;;;;;;5063779;28;20063;-56
2022/01/19 11:44:38;;;;;;;20.67;9.10;;;;;;;;;;5085420;28;20063;-57
2022/01/19 11:47:16;;;;;;;20.17;8.32;;;;;;;;;;5064380;28;20048;-59
2022/01/19 11:49:52;;;;;;;23.30;8.93;;;;;;;;;;5085087;28;20056;-55
2022/01/19 11:52:20;;;;;;;23.05;9.35;;;;;;;;;;5080631;28;20053;-52
2022/01/19 11:54:47;;;;;;;21.38;8.30;;;;;;;;;;5070725;28;20063;-55
2022/01/19 11:57:16;;;;;;;20.25;8.75;;;;;;;;;;5080884;28;20121;-52
2022/01/19 12:00:01;;;;;;;20.20;8.15;;;;;;;;;;5068678;28;20110;-58
2022/01/19 12:02:36;;;;;;;16.83;6.68;;;;;;;;;;5061024;28;20063;-54
2022/01/19 12:05:15;;;;;;;21.73;7.97;;;;;;;;;;5086792;28;20209;-56
2022/01/19 12:07:42;;;;;;;19.98;8.60;;;;;;;;;;5080637;28;20052;-56
2022/01/19 12:10:12;;;;;;;21.77;8.38;;;;;;;;;;5067951;28;20044;-53
2022/01/19 12:12:47;;;;;;;22.55;9.52;;;;;;;;;;5063660;28;20063;-56
2022/01/19 12:15:31;;;;;;;23.75;9.80;;;;;;;;;;5084748;28;20059;-54
2022/01/19 12:18:07;;;;;;;17.48;6.50;;;;;;;;;;5062533;28;20508;-54
2022/01/19 12:20:50;;;;;;;22.45;8.63;;;;;;;;;;5069981;28;20049;-57
2022/01/19 12:23:28;;;;;;;25.05;9.23;;;;;;;;;;5078150;28;20428;-53
2022/01/19 12:25:55;;;;;;;22.48;8.85;;;;;;;;;;5084007;28;20076;-52
2022/01/19 12:28:40;;;;;;;21.48;8.40;;;;;;;;;;5081122;28;20047;-55
2022/01/19 12:31:26;;;;;;;19.95;8.32;;;;;;;;;;5066843;28;20048;-52
2022/01/19 12:34:16;;;;;;;19.10;8.07;;;;;;;;;;5062764;28;20048;-56
2022/01/19 12:36:47;;;;;;;25.25;9.05;;;;;;;;;;5060871;28;20127;-55
2022/01/19 12:39:32;;;;;;;26.08;8.90;;;;;;;;;;5071247;28;20056;-53
2022/01/19 12:41:59;;;;;;;20.30;8.32;;;;;;;;;;5083657;28;20137;-52
2022/01/19 12:44:40;;;;;;;26.38;9.40;;;;;;;;;;5061037;28;20052;-55
2022/01/19 12:47:26;;;;;;;25.20;9.77;;;;;;;;;;5084443;28;20075;-55
2022/01/19 12:49:53;;;;;;;24.83;10.15;;;;;;;;;;5061517;28;20045;-55
2022/01/19 12:52:22;;;;;;;28.25;10.27;;;;;;;;;;5068862;28;20052;-56
2022/01/19 12:54:49;;;;;;;24.08;9.60;;;;;;;;;;5081116;28;20065;-52
2022/01/19 12:57:16;;;;;;;26.08;9.48;;;;;;;;;;5068602;28;20080;-55
2022/01/19 12:59:43;;;;;;;21.17;9.43;;;;;;;;;;5080041;28;20052;-56
2022/01/19 13:02:12;;;;;;;26.42;10.45;;;;;;;;;;5084481;28;20056;-52
2022/01/19 13:04:39;;;;;;;25.30;10.50;;;;;;;;;;5061573;28;20702;-54
2022/01/19 13:07:16;;;;;;;23.23;10.27;;;;;;;;;;5070384;28;20059;-61
2022/01/19 13:09:58;;;;;;;22.67;9.35;;;;;;;;;;5077694;28;20055;-55
2022/01/19 13:12:34;;;;;;;21.73;8.98;;;;;;;;;;5084553;28;20098;-56
2022/01/19 13:15:01;;;;;;;22.80;9.13;;;;;;;;;;5078587;28;20052;-58
2022/01/19 13:17:39;;;;;;;27.20;11.43;;;;;;;;;;5068784;28;20054;-57
2022/01/19 13:20:10;;;;;;;25.80;9.83;;;;;;;;;;5060481;28;20080;-54
2022/01/19 13:22:44;;;;;;;29.15;10.05;;;;;;;;;;5084359;28;20110;-54
2022/01/19 13:25:22;;;;;;;33.30;11.82;;;;;;;;;;5061296;28;20052;-54
2022/01/19 13:27:51;;;;;;;21.35;8.23;;;;;;;;;;5065369;28;20063;-55
2022/01/19 13:30:18;;;;;;;23.27;9.32;;;;;;;;;;5060371;28;20047;-55
2022/01/19 13:32:45;;;;;;;22.17;10.07;;;;;;;;;;5068175;28;20055;-56
2022/01/19 13:35:12;;;;;;;28.13;10.88;;;;;;;;;;5078687;28;20048;-55
2022/01/19 13:37:41;;;;;;;27.30;10.88;;;;;;;;;;5068166;28;20102;-56
2022/01/19 13:40:09;;;;;;;22.85;9.43;;;;;;;;;;5079876;28;20076;-55
2022/01/19 13:42:39;;;;;;;23.13;8.83;;;;;;;;;;5067374;28;20190;-54
2022/01/19 13:45:13;;;;;;;28.67;10.23;;;;;;;;;;5078026;28;20068;-52
2022/01/19 13:47:54;;;;;;;29.65;10.95;;;;;;;;;;5066864;28;20067;-58
2022/01/19 13:50:21;;;;;;;23.60;9.10;;;;;;;;;;5078070;28;20058;-58
2022/01/19 13:52:47;;;;;;;24.05;11.00;;;;;;;;;;5066178;28;20225;-53
2022/01/19 13:55:21;;;;;;;30.27;10.73;;;;;;;;;;5078705;28;20056;-50
2022/01/19 13:57:47;;;;;;;24.30;9.75;;;;;;;;;;5084526;28;20056;-54
2022/01/19 14:00:16;;;;;;;19.10;7.25;;;;;;;;;;5068100;28;20140;-53
2022/01/19 14:02:56;;;;;;;26.30;10.27;;;;;;;;;;5077710;28;20140;-56
2022/01/19 14:05:34;;;;;;;24.27;9.57;;;;;;;;;;5083706;28;20110;-57
2022/01/19 14:08:01;;;;;;;;;;;;;;;;;;5063638;28;20056;-50
2022/01/19 14:10:27;;;;;;;26.70;10.57;;;;;;;;;;5067645;28;19924;-53
2022/01/19 14:12:55;;;;;;;24.45;8.93;;;;;;;;;;5060066;28;20079;-56
2022/01/19 14:15:27;;;;;;;29.42;11.55;;;;;;;;;;5066130;28;20102;-53
2022/01/19 14:17:54;;;;;;;26.40;10.68;;;;;;;;;;5061876;28;20045;-53
2022/01/19 14:20:21;;;;;;;27.80;10.02;;;;;;;;;;5066877;28;20057;-55
2022/01/19 14:22:48;;;;;;;28.33;11.10;;;;;;;;;;5059824;28;20052;-53
2022/01/19 14:25:17;;;;;;;21.75;8.98;;;;;;;;;;5074738;28;20048;-56
2022/01/19 14:27:45;;;;;;;29.92;10.80;;;;;;;;;;5078117;28;20082;-56
2022/01/19 14:30:16;;;;;;;20.20;8.40;;;;;;;;;;5067856;28;20053;-56
2022/01/19 14:32:48;;;;;;;27.95;10.90;;;;;;;;;;5059906;28;20044;-55
2022/01/19 14:35:24;;;;;;;23.70;9.18;;;;;;;;;;5083957;28;20048;-54
2022/01/19 14:38:01;;;;;;;23.65;10.23;;;;;;;;;;5074769;28;20060;-54
2022/01/19 14:40:28;;;;;;;25.50;10.18;;;;;;;;;;5085392;28;20064;-59
2022/01/19 14:42:54;;;;;;;23.52;9.25;;;;;;;;;;5078984;28;20132;-57
2022/01/19 14:45:25;;;;;;;26.50;10.57;;;;;;;;;;5067975;28;20110;-57
2022/01/19 14:47:54;;;;;;;22.25;8.57;;;;;;;;;;5060847;28;20136;-56
2022/01/19 14:50:22;;;;;;;21.38;8.48;;;;;;;;;;5067936;28;20053;-58
2022/01/19 14:52:49;;;;;;;23.50;8.68;;;;;;;;;;5077505;28;20049;-57
2022/01/19 14:55:17;;;;;;;23.20;9.80;;;;;;;;;;5066068;28;20098;-56
2022/01/19 14:57:44;;;;;;;22.13;9.45;;;;;;;;;;5060406;28;20056;-50
2022/01/19 15:00:11;;;;;;;22.70;9.05;;;;;;;;;;5069222;28;20072;-53
2022/01/19 15:02:40;;;;;;;21.73;8.55;;;;;;;;;;5055657;28;20052;-56
2022/01/19 15:05:06;;;;;;;;;;;;;;;;;;5035587;28;20194;-56
2022/01/19 15:07:36;;;;;;;24.15;8.48;;;;;;;;;;5042384;28;19964;-58
2022/01/19 15:10:03;;;;;;;26.15;8.13;;;;;;;;;;5051043;28;20057;-54
2022/01/19 15:12:29;;;;;;;20.85;8.55;;;;;;;;;;5062639;28;20134;-54
2022/01/19 15:14:57;;;;;;;23.40;9.88;;;;;;;;;;5053192;28;20494;-56
2022/01/19 15:17:23;;;;;;;19.80;8.38;;;;;;;;;;5046256;28;20138;-57
2022/01/19 15:19:50;;;;;;;26.77;9.02;;;;;;;;;;5038314;28;20122;-56
2022/01/19 15:22:16;;;;;;;30.80;9.40;;;;;;;;;;5047325;28;20102;-56
2022/01/19 15:24:45;;;;;;;31.65;9.20;;;;;;;;;;5048021;28;20084;-57
2022/01/19 15:27:11;;;;;;;22.85;9.43;;;;;;;;;;5036327;28;20471;-54
2022/01/19 15:29:38;;;;;;;23.92;8.88;;;;;;;;;;5048751;28;20052;-52
2022/01/19 15:32:05;;;;;;;21.23;9.10;;;;;;;;;;5039343;28;20143;-58
2022/01/19 15:34:31;;;;;;;21.27;8.93;;;;;;;;;;5050919;28;20045;-54
2022/01/19 15:36:58;;;;;;;25.60;9.50;;;;;;;;;;5030136;28;20077;-52
2022/01/19 15:39:24;;;;;;;27.40;10.13;;;;;;;;;;5058345;28;20090;-58
2022/01/19 15:41:52;;;;;;;22.58;9.82;;;;;;;;;;5074289;28;20080;-59
2022/01/19 15:44:19;;;;;;;29.42;10.52;;;;;;;;;;5046567;28;20149;-54